Time,TemperatureF,DewpointF,PressureIn,WindDirection,WindDirectionDegrees,WindSpeedMPH,WindSpeedGustMPH,Humidity,HourlyPrecipIn,Conditions,Clouds,dailyrainin,SolarRadiationWatts/m^2,SoftwareType,DateUTC
2013-11-11 00:11:00,38.3,35.0,30.18,NNW,337,6.0,7.0,87,0.01,,,0.00,0,weatherlink.com 1.10,2013-11-10 23:11:00,
2013-11-11 00:26:00,37.9,34.0,30.19,NNW,330,4.0,8.0,85,0.01,,,0.00,0,weatherlink.com 1.10,2013-11-10 23:26:00,
2013-11-11 00:41:00,38.6,34.0,30.20,NW,325,5.0,10.0,84,0.00,,,0.00,0,weatherlink.com 1.10,2013-11-10 23:41:00,
2013-11-11 00:56:00,38.9,35.0,30.20,NW,321,6.0,11.0,84,0.00,,,0.00,0,weatherlink.com 1.10,2013-11-10 23:56:00,
2013-11-11 01:11:00,39.1,35.0,30.21,NW,318,6.0,13.0,84,0.00,,,0.00,0,weatherlink.com 1.10,2013-11-11 00:11:00,
2013-11-11 01:26:00,39.1,35.0,30.20,NW,310,10.0,13.0,85,0.00,,,0.00,0,weatherlink.com 1.10,2013-11-11 00:26:00,
2013-11-11 01:41:00,39.1,35.0,30.20,NW,309,5.0,10.0,84,0.00,,,0.00,0,weatherlink.com 1.10,2013-11-11 00:41:00,
2013-11-11 01:56:00,38.9,35.0,30.20,NW,318,9.0,11.0,84,0.00,,,0.00,0,weatherlink.com 1.10,2013-11-11 00:56:00,
2013-11-11 02:11:00,38.6,34.0,30.20,NW,317,8.0,12.0,84,0.00,,,0.00,0,weatherlink.com 1.10,2013-11-11 01:11:00,
2013-11-11 02:26:00,38.2,34.0,30.20,NW,312,7.0,11.0,85,0.00,,,0.00,0,weatherlink.com 1.10,2013-11-11 01:26:00,
2013-11-11 02:41:00,38.1,34.0,30.20,NW,320,5.0,11.0,84,0.00,,,0.00,0,weatherlink.com 1.10,2013-11-11 01:41:00,
2013-11-11 02:56:00,38.2,34.0,30.21,NW,313,8.0,13.0,83,0.00,,,0.00,0,weatherlink.com 1.10,2013-11-11 01:56:00,
2013-11-11 03:11:00,38.4,34.0,30.21,NW,318,7.0,11.0,83,0.00,,,0.00,0,weatherlink.com 1.10,2013-11-11 02:11:00,
2013-11-11 03:27:00,38.8,33.0,30.22,NW,319,4.0,10.0,81,0.00,,,0.00,0,weatherlink.com 1.10,2013-11-11 02:27:00,
2013-11-11 03:42:00,39.1,33.0,30.21,NNW,340,4.0,10.0,79,0.00,,,0.00,0,weatherlink.com 1.10,2013-11-11 02:42:00,
2013-11-11 03:57:00,39.5,34.0,30.21,NNW,340,7.0,14.0,80,0.00,,,0.00,0,weatherlink.com 1.10,2013-11-11 02:57:00,
2013-11-11 04:12:00,39.2,33.0,30.21,NNE,25,8.0,15.0,79,0.00,,,0.00,0,weatherlink.com 1.10,2013-11-11 03:12:00,
2013-11-11 04:27:00,39.1,32.0,30.21,NNW,337,10.0,13.0,77,0.00,,,0.00,0,weatherlink.com 1.10,2013-11-11 03:27:00,
2013-11-11 04:42:00,39.1,32.0,30.21,NNW,330,4.0,12.0,77,0.00,,,0.00,0,weatherlink.com 1.10,2013-11-11 03:42:00,
2013-11-11 04:57:00,39.3,32.0,30.22,NNW,342,13.0,16.0,76,0.00,,,0.00,0,weatherlink.com 1.10,2013-11-11 03:57:00,
2013-11-11 05:12:00,39.1,32.0,30.22,NNW,337,9.0,16.0,77,0.00,,,0.00,0,weatherlink.com 1.10,2013-11-11 04:12:00,
2013-11-11 05:27:00,38.9,33.0,30.22,NNW,331,7.0,13.0,78,0.00,,,0.00,0,weatherlink.com 1.10,2013-11-11 04:27:00,
2013-11-11 05:42:00,38.8,32.0,30.22,NW,311,9.0,15.0,77,0.00,,,0.00,0,weatherlink.com 1.10,2013-11-11 04:42:00,
2013-11-11 05:57:00,39.4,32.0,30.23,NNW,334,9.0,16.0,74,0.00,,,0.00,0,weatherlink.com 1.10,2013-11-11 04:57:00,
2013-11-11 06:12:00,40.0,32.0,30.23,North,355,18.0,21.0,74,0.00,,,0.00,0,weatherlink.com 1.10,2013-11-11 05:12:00,
2013-11-11 06:27:00,40.0,32.0,30.23,NW,316,4.0,17.0,74,0.00,,,0.00,0,weatherlink.com 1.10,2013-11-11 05:27:00,
2013-11-11 06:42:00,39.8,32.0,30.23,NE,56,6.0,20.0,75,0.00,,,0.00,0,weatherlink.com 1.10,2013-11-11 05:42:00,
2013-11-11 06:57:00,40.0,33.0,30.23,NE,34,6.0,17.0,75,0.00,,,0.00,0,weatherlink.com 1.10,2013-11-11 05:57:00,
2013-11-11 07:12:00,40.0,33.0,30.24,NE,34,4.0,17.0,77,0.00,,,0.00,0,weatherlink.com 1.10,2013-11-11 06:12:00,
2013-11-11 07:27:00,40.1,33.0,30.24,North,350,8.0,10.0,76,0.00,,,0.00,0,weatherlink.com 1.10,2013-11-11 06:27:00,
2013-11-11 07:42:00,40.2,33.0,30.25,North,355,7.0,16.0,75,0.00,,,0.00,16,weatherlink.com 1.10,2013-11-11 06:42:00,
2013-11-11 07:57:00,40.4,33.0,30.25,NNW,338,15.0,19.0,76,0.00,,,0.00,47,weatherlink.com 1.10,2013-11-11 06:57:00,
2013-11-11 08:12:00,40.6,34.0,30.25,NNW,348,6.0,20.0,76,0.00,,,0.00,65,weatherlink.com 1.10,2013-11-11 07:12:00,
2013-11-11 08:27:00,41.0,33.0,30.25,NW,321,11.0,24.0,74,0.00,,,0.00,79,weatherlink.com 1.10,2013-11-11 07:27:00,
2013-11-11 08:42:00,41.4,33.0,30.26,ENE,61,14.0,24.0,73,0.00,,,0.00,109,weatherlink.com 1.10,2013-11-11 07:42:00,
2013-11-11 08:57:00,41.7,34.0,30.26,North,5,9.0,22.0,75,0.00,,,0.00,113,weatherlink.com 1.10,2013-11-11 07:57:00,
2013-11-11 09:12:00,42.1,34.0,30.25,North,355,16.0,24.0,72,0.00,,,0.00,288,weatherlink.com 1.10,2013-11-11 08:12:00,
2013-11-11 09:27:00,42.0,33.0,30.25,NNW,333,11.0,24.0,70,0.00,,,0.00,192,weatherlink.com 1.10,2013-11-11 08:27:00,
2013-11-11 09:42:00,42.2,33.0,30.25,NNW,344,11.0,32.0,71,0.00,,,0.00,301,weatherlink.com 1.10,2013-11-11 08:42:00,
2013-11-11 09:57:00,42.4,33.0,30.26,NNE,15,10.0,29.0,70,0.00,,,0.00,313,weatherlink.com 1.10,2013-11-11 08:57:00,
2013-11-11 10:12:00,42.9,33.0,30.25,North,360,26.0,30.0,69,0.00,,,0.00,316,weatherlink.com 1.10,2013-11-11 09:12:00,
2013-11-11 10:27:00,43.1,34.0,30.25,NNW,337,15.0,24.0,69,0.00,,,0.00,341,weatherlink.com 1.10,2013-11-11 09:27:00,
2013-11-11 10:42:00,43.9,34.0,30.25,NNW,327,11.0,27.0,67,0.00,,,0.00,367,weatherlink.com 1.10,2013-11-11 09:42:00,
2013-11-11 10:57:00,44.4,34.0,30.25,NNW,327,16.0,27.0,66,0.00,,,0.00,387,weatherlink.com 1.10,2013-11-11 09:57:00,
2013-11-11 11:12:00,44.8,33.0,30.25,NNE,31,16.0,31.0,64,0.00,,,0.00,406,weatherlink.com 1.10,2013-11-11 10:12:00,
2013-11-11 11:27:00,45.0,33.0,30.25,North,10,24.0,36.0,64,0.00,,,0.00,420,weatherlink.com 1.10,2013-11-11 10:27:00,
2013-11-11 11:43:00,45.5,33.0,30.25,NNE,12,21.0,35.0,63,0.00,,,0.00,432,weatherlink.com 1.10,2013-11-11 10:43:00,
2013-11-11 11:58:00,45.8,34.0,30.25,NNW,345,5.0,34.0,63,0.00,,,0.00,439,weatherlink.com 1.10,2013-11-11 10:58:00,
2013-11-11 12:13:00,45.7,33.0,30.24,North,355,6.0,26.0,61,0.00,,,0.00,445,weatherlink.com 1.10,2013-11-11 11:13:00,
2013-11-11 12:28:00,46.1,33.0,30.24,NNW,333,12.0,33.0,61,0.00,,,0.00,445,weatherlink.com 1.10,2013-11-11 11:28:00,
2013-11-11 12:43:00,46.2,33.0,30.23,NNE,26,19.0,32.0,60,0.00,,,0.00,441,weatherlink.com 1.10,2013-11-11 11:43:00,
2013-11-11 12:58:00,46.5,34.0,30.23,NNE,16,32.0,32.0,61,0.00,,,0.00,436,weatherlink.com 1.10,2013-11-11 11:58:00,
2013-11-11 13:13:00,46.6,34.0,30.22,NNE,26,10.0,35.0,61,0.00,,,0.00,429,weatherlink.com 1.10,2013-11-11 12:13:00,
2013-11-11 13:28:00,46.8,33.0,30.23,North,355,8.0,25.0,60,0.00,,,0.00,413,weatherlink.com 1.10,2013-11-11 12:28:00,
2013-11-11 13:43:00,46.8,33.0,30.23,NNE,22,16.0,28.0,60,0.00,,,0.00,399,weatherlink.com 1.10,2013-11-11 12:43:00,
2013-11-11 13:58:00,46.8,33.0,30.23,NNW,332,10.0,24.0,60,0.00,,,0.00,385,weatherlink.com 1.10,2013-11-11 12:58:00,
2013-11-11 14:13:00,47.0,34.0,30.23,North,5,18.0,25.0,61,0.00,,,0.00,366,weatherlink.com 1.10,2013-11-11 13:13:00,
2013-11-11 14:28:00,47.4,34.0,30.23,NNE,26,13.0,21.0,60,0.00,,,0.00,345,weatherlink.com 1.10,2013-11-11 13:28:00,
2013-11-11 14:43:00,47.3,33.0,30.23,North,360,12.0,29.0,59,0.00,,,0.00,318,weatherlink.com 1.10,2013-11-11 13:43:00,
2013-11-11 14:58:00,47.2,34.0,30.23,NE,45,11.0,34.0,61,0.00,,,0.00,290,weatherlink.com 1.10,2013-11-11 13:58:00,
2013-11-11 15:13:00,47.5,34.0,30.23,NNW,342,15.0,20.0,61,0.00,,,0.00,258,weatherlink.com 1.10,2013-11-11 14:13:00,
2013-11-11 15:28:00,47.3,34.0,30.23,NE,34,6.0,23.0,60,0.00,,,0.00,220,weatherlink.com 1.10,2013-11-11 14:28:00,
2013-11-11 15:43:00,47.0,34.0,30.23,North,355,16.0,27.0,60,0.00,,,0.00,176,weatherlink.com 1.10,2013-11-11 14:43:00,
2013-11-11 15:58:00,46.3,33.0,30.23,NE,38,13.0,29.0,61,0.00,,,0.00,62,weatherlink.com 1.10,2013-11-11 14:58:00,
2013-11-11 16:13:00,44.8,33.0,30.23,North,5,12.0,22.0,64,0.00,,,0.00,21,weatherlink.com 1.10,2013-11-11 15:13:00,
2013-11-11 16:28:00,44.3,32.0,30.22,NNE,16,19.0,31.0,63,0.00,,,0.00,18,weatherlink.com 1.10,2013-11-11 15:28:00,
2013-11-11 16:43:00,44.0,33.0,30.23,NNE,31,13.0,21.0,65,0.00,,,0.00,14,weatherlink.com 1.10,2013-11-11 15:43:00,
2013-11-11 16:58:00,43.8,33.0,30.23,NNE,25,4.0,30.0,65,0.00,,,0.00,9,weatherlink.com 1.10,2013-11-11 15:58:00,
2013-11-11 17:13:00,43.6,32.0,30.23,NNE,15,11.0,28.0,65,0.00,,,0.00,0,weatherlink.com 1.10,2013-11-11 16:13:00,
2013-11-11 17:28:00,43.6,32.0,30.24,North,5,11.0,27.0,65,0.00,,,0.00,0,weatherlink.com 1.10,2013-11-11 16:28:00,
2013-11-11 17:43:00,43.4,32.0,30.24,NNE,19,17.0,33.0,65,0.00,,,0.00,0,weatherlink.com 1.10,2013-11-11 16:43:00,
2013-11-11 17:58:00,43.2,32.0,30.25,NNW,328,14.0,19.0,66,0.00,,,0.00,0,weatherlink.com 1.10,2013-11-11 16:58:00,
2013-11-11 18:13:00,42.8,33.0,30.26,North,5,8.0,15.0,68,0.00,,,0.00,0,weatherlink.com 1.10,2013-11-11 17:13:00,
2013-11-11 18:28:00,42.6,33.0,30.26,North,351,9.0,15.0,69,0.00,,,0.00,0,weatherlink.com 1.10,2013-11-11 17:28:00,
2013-11-11 18:43:00,42.3,33.0,30.26,NNW,331,7.0,15.0,70,0.00,,,0.00,0,weatherlink.com 1.10,2013-11-11 17:43:00,
2013-11-11 18:58:00,42.1,33.0,30.26,NNE,17,12.0,21.0,70,0.00,,,0.00,0,weatherlink.com 1.10,2013-11-11 17:58:00,
2013-11-11 19:13:00,41.9,33.0,30.26,NNE,18,20.0,21.0,70,0.00,,,0.00,0,weatherlink.com 1.10,2013-11-11 18:13:00,
2013-11-11 19:28:00,42.0,33.0,30.24,NNW,348,20.0,24.0,70,0.00,,,0.00,0,weatherlink.com 1.10,2013-11-11 18:28:00,
2013-11-11 19:43:00,41.7,33.0,30.24,NNE,24,8.0,23.0,71,0.00,,,0.00,0,weatherlink.com 1.10,2013-11-11 18:43:00,
2013-11-11 19:58:00,41.5,33.0,30.24,NE,38,21.0,25.0,71,0.00,,,0.00,0,weatherlink.com 1.10,2013-11-11 18:58:00,
2013-11-11 20:13:00,41.2,33.0,30.25,NNE,33,6.0,21.0,72,0.00,,,0.00,0,weatherlink.com 1.10,2013-11-11 19:13:00,
2013-11-11 20:28:00,41.0,34.0,30.25,North,355,7.0,21.0,77,0.00,,,0.00,0,weatherlink.com 1.10,2013-11-11 19:28:00,
2013-11-11 20:43:00,40.7,33.0,30.25,NE,43,10.0,16.0,73,0.00,,,0.00,0,weatherlink.com 1.10,2013-11-11 19:43:00,
2013-11-11 20:58:00,40.6,33.0,30.25,NE,40,3.0,12.0,74,0.00,,,0.00,0,weatherlink.com 1.10,2013-11-11 19:58:00,
2013-11-11 21:13:00,40.7,33.0,30.26,ENE,67,1.0,6.0,75,0.00,,,0.00,0,weatherlink.com 1.10,2013-11-11 20:13:00,
2013-11-11 21:28:00,40.7,34.0,30.26,ENE,62,2.0,10.0,76,0.00,,,0.00,0,weatherlink.com 1.10,2013-11-11 20:28:00,
2013-11-11 21:43:00,40.7,34.0,30.26,NNW,329,5.0,10.0,76,0.00,,,0.00,0,weatherlink.com 1.10,2013-11-11 20:43:00,
2013-11-11 21:58:00,40.9,34.0,30.26,NNE,24,6.0,10.0,75,0.00,,,0.00,0,weatherlink.com 1.10,2013-11-11 20:58:00,
2013-11-11 22:13:00,40.9,34.0,30.27,North,355,8.0,12.0,75,0.00,,,0.00,0,weatherlink.com 1.10,2013-11-11 21:13:00,
2013-11-11 22:28:00,40.9,34.0,30.27,NNW,330,11.0,16.0,76,0.00,,,0.00,0,weatherlink.com 1.10,2013-11-11 21:28:00,
2013-11-11 22:43:00,40.7,34.0,30.27,NW,312,6.0,11.0,77,0.00,,,0.00,0,weatherlink.com 1.10,2013-11-11 21:43:00,
2013-11-11 22:58:00,40.7,34.0,30.26,NNW,334,12.0,12.0,77,0.00,,,0.00,0,weatherlink.com 1.10,2013-11-11 21:58:00,
2013-11-11 23:13:00,40.7,34.0,30.27,NNW,336,7.0,19.0,76,0.00,,,0.00,0,weatherlink.com 1.10,2013-11-11 22:13:00,
2013-11-11 23:28:00,40.5,34.0,30.27,NNE,19,8.0,12.0,76,0.00,,,0.00,0,weatherlink.com 1.10,2013-11-11 22:28:00,
2013-11-11 23:43:00,40.4,34.0,30.27,North,9,5.0,15.0,78,0.00,,,0.00,0,weatherlink.com 1.10,2013-11-11 22:43:00,
2013-11-11 23:58:00,40.3,34.0,30.27,NNE,31,6.0,13.0,78,0.00,,,0.00,0,weatherlink.com 1.10,2013-11-11 22:58:00,